sensor_id;sensor_type;location;lat;lon;timestamp;pressure;altitude;pressure_sealevel;temperature;humidity
39793;BME280;26080;42.264;24.536;2023-02-16T00:01:51;100708.63;;;-2.02;100.00
39793;BME280;26080;42.264;24.536;2023-02-16T00:04:20;100717.06;;;-2.06;100.00
39793;BME280;26080;42.264;24.536;2023-02-16T00:06:46;100711.72;;;-2.16;100.00
39793;BME280;26080;42.264;24.536;2023-02-16T00:09:12;100689.63;;;-2.42;100.00
39793;BME280;26080;42.264;24.536;2023-02-16T00:11:37;100709.06;;;-2.19;100.00
39793;BME280;26080;42.264;24.536;2023-02-16T00:14:22;100713.44;;;-2.15;100.00
39793;BME280;26080;42.264;24.536;2023-02-16T00:16:51;100709.44;;;-2.05;100.00
39793;BME280;26080;42.264;24.536;2023-02-16T00:21:46;100726.31;;;-2.13;100.00
39793;BME280;26080;42.264;24.536;2023-02-16T00:24:13;100688.59;;;-2.47;100.00
39793;BME280;26080;42.264;24.536;2023-02-16T00:26:40;100719.13;;;-1.93;100.00
39793;BME280;26080;42.264;24.536;2023-02-16T00:29:10;100687.25;;;-2.01;100.00
39793;BME280;26080;42.264;24.536;2023-02-16T00:31:38;100708.19;;;-2.19;100.00
39793;BME280;26080;42.264;24.536;2023-02-16T00:37:02;100699.75;;;-2.47;100.00
39793;BME280;26080;42.264;24.536;2023-02-16T00:39:29;100719.03;;;-2.29;100.00
39793;BME280;26080;42.264;24.536;2023-02-16T00:41:57;100717.09;;;-2.38;100.00
39793;BME280;26080;42.264;24.536;2023-02-16T00:44:34;100720.13;;;-2.51;100.00
39793;BME280;26080;42.264;24.536;2023-02-16T00:47:03;100722.53;;;-2.57;100.00
39793;BME280;26080;42.264;24.536;2023-02-16T00:49:33;100718.81;;;-2.69;100.00
39793;BME280;26080;42.264;24.536;2023-02-16T00:51:58;100720.53;;;-2.67;100.00
39793;BME280;26080;42.264;24.536;2023-02-16T00:54:23;100712.72;;;-2.42;100.00
39793;BME280;26080;42.264;24.536;2023-02-16T00:56:49;100712.31;;;-2.56;100.00
39793;BME280;26080;42.264;24.536;2023-02-16T00:59:17;100711.06;;;-2.70;100.00
39793;BME280;26080;42.264;24.536;2023-02-16T01:01:45;100703.22;;;-2.75;100.00
39793;BME280;26080;42.264;24.536;2023-02-16T01:04:17;100705.75;;;-2.76;100.00
39793;BME280;26080;42.264;24.536;2023-02-16T01:06:43;100705.53;;;-2.54;100.00
39793;BME280;26080;42.264;24.536;2023-02-16T01:09:28;100705.34;;;-2.30;100.00
39793;BME280;26080;42.264;24.536;2023-02-16T01:12:16;100705.75;;;-2.15;100.00
39793;BME280;26080;42.264;24.536;2023-02-16T01:14:44;100703.59;;;-2.31;100.00
39793;BME280;26080;42.264;24.536;2023-02-16T01:17:11;100707.03;;;-2.30;100.00
39793;BME280;26080;42.264;24.536;2023-02-16T01:19:36;100704.56;;;-2.27;100.00
39793;BME280;26080;42.264;24.536;2023-02-16T01:22:02;100708.56;;;-2.37;100.00
39793;BME280;26080;42.264;24.536;2023-02-16T01:24:27;100697.38;;;-2.39;100.00
39793;BME280;26080;42.264;24.536;2023-02-16T01:26:53;100697.31;;;-2.42;100.00
39793;BME280;26080;42.264;24.536;2023-02-16T01:29:19;100693.09;;;-2.40;100.00
39793;BME280;26080;42.264;24.536;2023-02-16T01:31:46;100687.03;;;-2.11;100.00
39793;BME280;26080;42.264;24.536;2023-02-16T01:34:12;100684.81;;;-2.30;100.00
39793;BME280;26080;42.264;24.536;2023-02-16T01:36:40;100652.03;;;-2.72;100.00
39793;BME280;26080;42.264;24.536;2023-02-16T01:39:10;100688.44;;;-2.53;100.00
39793;BME280;26080;42.264;24.536;2023-02-16T01:42:02;100687.53;;;-2.55;100.00
39793;BME280;26080;42.264;24.536;2023-02-16T01:44:39;100690.00;;;-2.60;100.00
39793;BME280;26080;42.264;24.536;2023-02-16T01:49:54;100680.09;;;-2.76;100.00
39793;BME280;26080;42.264;24.536;2023-02-16T01:52:36;100691.22;;;-2.76;100.00
39793;BME280;26080;42.264;24.536;2023-02-16T01:55:34;100663.25;;;-2.98;100.00
39793;BME280;26080;42.264;24.536;2023-02-16T02:03:32;100678.63;;;-2.98;100.00
39793;BME280;26080;42.264;24.536;2023-02-16T02:06:25;100676.72;;;-3.05;100.00
39793;BME280;26080;42.264;24.536;2023-02-16T02:14:36;100676.00;;;-3.01;100.00
39793;BME280;26080;42.264;24.536;2023-02-16T02:17:08;100679.06;;;-2.83;100.00
39793;BME280;26080;42.264;24.536;2023-02-16T02:37:09;100673.59;;;-2.65;100.00
39793;BME280;26080;42.264;24.536;2023-02-16T02:43:21;100682.59;;;-2.79;100.00
39793;BME280;26080;42.264;24.536;2023-02-16T02:46:06;100681.09;;;-2.73;100.00
39793;BME280;26080;42.264;24.536;2023-02-16T02:48:34;100682.00;;;-2.71;100.00
39793;BME280;26080;42.264;24.536;2023-02-16T02:54:16;100689.69;;;-2.71;100.00
39793;BME280;26080;42.264;24.536;2023-02-16T02:57:06;100689.13;;;-2.89;100.00
39793;BME280;26080;42.264;24.536;2023-02-16T02:59:59;100622.91;;;-3.34;100.00
39793;BME280;26080;42.264;24.536;2023-02-16T03:02:47;100690.28;;;-3.09;100.00
39793;BME280;26080;42.264;24.536;2023-02-16T03:05:15;100687.16;;;-2.99;100.00
39793;BME280;26080;42.264;24.536;2023-02-16T03:07:45;100680.47;;;-2.94;100.00
39793;BME280;26080;42.264;24.536;2023-02-16T03:10:22;100692.75;;;-2.82;100.00
39793;BME280;26080;42.264;24.536;2023-02-16T03:13:16;100686.28;;;-3.00;100.00
39793;BME280;26080;42.264;24.536;2023-02-16T03:15:44;100688.97;;;-2.95;100.00
39793;BME280;26080;42.264;24.536;2023-02-16T03:18:11;100677.31;;;-2.85;100.00
39793;BME280;26080;42.264;24.536;2023-02-16T03:20:57;100688.94;;;-2.96;100.00
39793;BME280;26080;42.264;24.536;2023-02-16T03:23:42;100692.81;;;-2.81;100.00
39793;BME280;26080;42.264;24.536;2023-02-16T03:26:28;100688.63;;;-2.77;100.00
39793;BME280;26080;42.264;24.536;2023-02-16T03:29:13;100671.84;;;-2.96;100.00
39793;BME280;26080;42.264;24.536;2023-02-16T03:31:47;100656.44;;;-2.97;100.00
39793;BME280;26080;42.264;24.536;2023-02-16T03:34:14;100685.47;;;-2.69;100.00
39793;BME280;26080;42.264;24.536;2023-02-16T03:36:42;100687.19;;;-2.67;100.00
39793;BME280;26080;42.264;24.536;2023-02-16T03:39:08;100672.56;;;-2.72;100.00
39793;BME280;26080;42.264;24.536;2023-02-16T03:41:42;100684.72;;;-2.64;100.00
39793;BME280;26080;42.264;24.536;2023-02-16T03:44:10;100663.03;;;-2.76;100.00
39793;BME280;26080;42.264;24.536;2023-02-16T03:46:35;100677.72;;;-2.70;100.00
39793;BME280;26080;42.264;24.536;2023-02-16T03:49:01;100681.84;;;-2.75;100.00
39793;BME280;26080;42.264;24.536;2023-02-16T03:51:26;100672.72;;;-2.65;100.00
39793;BME280;26080;42.264;24.536;2023-02-16T03:53:52;100674.44;;;-2.64;100.00
39793;BME280;26080;42.264;24.536;2023-02-16T03:56:18;100682.50;;;-2.52;100.00
39793;BME280;26080;42.264;24.536;2023-02-16T03:58:43;100680.44;;;-2.64;100.00
39793;BME280;26080;42.264;24.536;2023-02-16T04:01:09;100682.91;;;-2.69;100.00
39793;BME280;26080;42.264;24.536;2023-02-16T04:03:34;100681.69;;;-2.81;100.00
39793;BME280;26080;42.264;24.536;2023-02-16T04:06:00;100686.41;;;-2.95;100.00
39793;BME280;26080;42.264;24.536;2023-02-16T04:08:25;100685.41;;;-3.00;100.00
39793;BME280;26080;42.264;24.536;2023-02-16T04:10:51;100656.00;;;-3.13;100.00
39793;BME280;26080;42.264;24.536;2023-02-16T04:13:16;100681.22;;;-2.98;100.00
39793;BME280;26080;42.264;24.536;2023-02-16T04:15:42;100686.72;;;-3.14;100.00
39793;BME280;26080;42.264;24.536;2023-02-16T04:18:07;100678.88;;;-3.19;100.00
39793;BME280;26080;42.264;24.536;2023-02-16T04:20:34;100672.25;;;-3.12;100.00
39793;BME280;26080;42.264;24.536;2023-02-16T04:23:00;100679.16;;;-3.10;100.00
39793;BME280;26080;42.264;24.536;2023-02-16T04:25:26;100678.69;;;-2.96;100.00
39793;BME280;26080;42.264;24.536;2023-02-16T04:27:52;100672.19;;;-2.85;100.00
39793;BME280;26080;42.264;24.536;2023-02-16T04:30:20;100644.00;;;-3.14;100.00
39793;BME280;26080;42.264;24.536;2023-02-16T04:32:47;100683.09;;;-2.91;100.00
39793;BME280;26080;42.264;24.536;2023-02-16T04:35:13;100682.94;;;-2.97;100.00
39793;BME280;26080;42.264;24.536;2023-02-16T04:37:38;100678.81;;;-2.92;100.00
39793;BME280;26080;42.264;24.536;2023-02-16T04:40:06;100688.28;;;-2.89;100.00
39793;BME280;26080;42.264;24.536;2023-02-16T04:42:31;100681.59;;;-3.14;100.00
39793;BME280;26080;42.264;24.536;2023-02-16T04:44:57;100682.56;;;-3.38;100.00
39793;BME280;26080;42.264;24.536;2023-02-16T04:47:22;100685.78;;;-3.43;100.00
39793;BME280;26080;42.264;24.536;2023-02-16T04:49:51;100694.09;;;-3.52;100.00
39793;BME280;26080;42.264;24.536;2023-02-16T04:52:16;100695.59;;;-3.57;100.00
39793;BME280;26080;42.264;24.536;2023-02-16T04:54:42;100691.88;;;-3.68;100.00
39793;BME280;26080;42.264;24.536;2023-02-16T04:57:08;100693.59;;;-3.67;100.00
39793;BME280;26080;42.264;24.536;2023-02-16T04:59:35;100652.69;;;-3.93;100.00
39793;BME280;26080;42.264;24.536;2023-02-16T05:02:00;100694.91;;;-3.80;100.00
39793;BME280;26080;42.264;24.536;2023-02-16T05:04:26;100700.59;;;-3.62;100.00
39793;BME280;26080;42.264;24.536;2023-02-16T05:06:51;100704.16;;;-3.57;100.00
39793;BME280;26080;42.264;24.536;2023-02-16T05:09:16;100702.94;;;-3.69;100.00
39793;BME280;26080;42.264;24.536;2023-02-16T05:11:42;100711.13;;;-3.79;100.00
39793;BME280;26080;42.264;24.536;2023-02-16T05:14:28;100711.78;;;-3.85;100.00
39793;BME280;26080;42.264;24.536;2023-02-16T05:17:16;100707.84;;;-3.75;100.00
39793;BME280;26080;42.264;24.536;2023-02-16T05:19:43;100715.75;;;-3.95;100.00
39793;BME280;26080;42.264;24.536;2023-02-16T05:22:09;100709.56;;;-4.00;100.00
39793;BME280;26080;42.264;24.536;2023-02-16T05:24:35;100698.84;;;-4.39;100.00
39793;BME280;26080;42.264;24.536;2023-02-16T05:27:02;100722.78;;;-4.38;100.00
39793;BME280;26080;42.264;24.536;2023-02-16T05:29:28;100721.81;;;-4.40;100.00
39793;BME280;26080;42.264;24.536;2023-02-16T05:31:54;100724.59;;;-4.34;100.00
39793;BME280;26080;42.264;24.536;2023-02-16T05:34:19;100700.25;;;-4.49;100.00
39793;BME280;26080;42.264;24.536;2023-02-16T05:36:45;100696.25;;;-4.40;100.00
39793;BME280;26080;42.264;24.536;2023-02-16T05:39:10;100720.13;;;-4.16;100.00
39793;BME280;26080;42.264;24.536;2023-02-16T05:41:36;100728.72;;;-4.14;100.00
39793;BME280;26080;42.264;24.536;2023-02-16T05:44:02;100726.94;;;-4.40;100.00
39793;BME280;26080;42.264;24.536;2023-02-16T05:46:30;100735.31;;;-4.44;100.00
39793;BME280;26080;42.264;24.536;2023-02-16T05:48:57;100747.59;;;-4.58;100.00
39793;BME280;26080;42.264;24.536;2023-02-16T05:51:23;100731.13;;;-4.42;100.00
39793;BME280;26080;42.264;24.536;2023-02-16T05:53:49;100741.69;;;-4.57;100.00
39793;BME280;26080;42.264;24.536;2023-02-16T05:56:15;100735.69;;;-4.58;100.00
39793;BME280;26080;42.264;24.536;2023-02-16T05:58:41;100747.28;;;-4.43;100.00
39793;BME280;26080;42.264;24.536;2023-02-16T06:01:06;100740.78;;;-4.35;100.00
39793;BME280;26080;42.264;24.536;2023-02-16T06:03:32;100744.00;;;-4.39;100.00
39793;BME280;26080;42.264;24.536;2023-02-16T06:06:00;100748.84;;;-4.25;100.00
39793;BME280;26080;42.264;24.536;2023-02-16T06:08:26;100722.03;;;-4.34;100.00
39793;BME280;26080;42.264;24.536;2023-02-16T06:10:52;100744.97;;;-4.12;100.00
39793;BME280;26080;42.264;24.536;2023-02-16T06:13:19;100725.03;;;-4.22;100.00
39793;BME280;26080;42.264;24.536;2023-02-16T06:15:45;100741.06;;;-4.02;100.00
39793;BME280;26080;42.264;24.536;2023-02-16T06:18:11;100750.34;;;-3.80;100.00
39793;BME280;26080;42.264;24.536;2023-02-16T06:20:37;100746.47;;;-3.69;100.00
39793;BME280;26080;42.264;24.536;2023-02-16T06:23:03;100752.16;;;-3.51;100.00
39793;BME280;26080;42.264;24.536;2023-02-16T06:25:29;100748.91;;;-3.45;100.00
39793;BME280;26080;42.264;24.536;2023-02-16T06:27:55;100752.75;;;-3.33;100.00
39793;BME280;26080;42.264;24.536;2023-02-16T06:30:22;100737.72;;;-3.22;100.00
39793;BME280;26080;42.264;24.536;2023-02-16T06:32:47;100742.53;;;-3.04;100.00
39793;BME280;26080;42.264;24.536;2023-02-16T06:35:13;100755.28;;;-2.77;100.00
39793;BME280;26080;42.264;24.536;2023-02-16T06:37:38;100756.31;;;-2.72;100.00
39793;BME280;26080;42.264;24.536;2023-02-16T06:40:04;100757.91;;;-2.76;100.00
39793;BME280;26080;42.264;24.536;2023-02-16T06:42:30;100758.53;;;-2.54;100.00
39793;BME280;26080;42.264;24.536;2023-02-16T06:44:56;100729.50;;;-2.53;100.00
39793;BME280;26080;42.264;24.536;2023-02-16T06:47:21;100770.88;;;-2.41;100.00
39793;BME280;26080;42.264;24.536;2023-02-16T06:49:46;100739.50;;;-2.32;100.00
39793;BME280;26080;42.264;24.536;2023-02-16T06:52:12;100739.66;;;-2.26;100.00
39793;BME280;26080;42.264;24.536;2023-02-16T06:54:38;100756.44;;;-2.06;100.00
39793;BME280;26080;42.264;24.536;2023-02-16T06:57:03;100738.66;;;-2.00;100.00
39793;BME280;26080;42.264;24.536;2023-02-16T06:59:29;100763.09;;;-1.81;100.00
39793;BME280;26080;42.264;24.536;2023-02-16T07:01:54;100763.69;;;-1.58;100.00
39793;BME280;26080;42.264;24.536;2023-02-16T07:04:20;100762.19;;;-1.50;100.00
39793;BME280;26080;42.264;24.536;2023-02-16T07:06:45;100750.66;;;-1.30;100.00
39793;BME280;26080;42.264;24.536;2023-02-16T07:09:11;100755.69;;;-0.97;100.00
39793;BME280;26080;42.264;24.536;2023-02-16T07:11:36;100752.75;;;-0.76;100.00
39793;BME280;26080;42.264;24.536;2023-02-16T07:14:02;100726.16;;;-0.76;100.00
39793;BME280;26080;42.264;24.536;2023-02-16T07:16:27;100745.19;;;-0.26;100.00
39793;BME280;26080;42.264;24.536;2023-02-16T07:18:53;100749.00;;;-0.06;100.00
39793;BME280;26080;42.264;24.536;2023-02-16T07:21:18;100751.13;;;0.15;100.00
39793;BME280;26080;42.264;24.536;2023-02-16T07:23:44;100760.97;;;0.41;100.00
39793;BME280;26080;42.264;24.536;2023-02-16T07:26:10;100751.88;;;0.61;100.00
39793;BME280;26080;42.264;24.536;2023-02-16T07:28:35;100754.88;;;0.87;100.00
39793;BME280;26080;42.264;24.536;2023-02-16T07:31:08;100751.72;;;1.08;100.00
39793;BME280;26080;42.264;24.536;2023-02-16T07:33:34;100755.44;;;1.25;100.00
39793;BME280;26080;42.264;24.536;2023-02-16T07:35:59;100752.94;;;1.34;100.00
39793;BME280;26080;42.264;24.536;2023-02-16T07:38:24;100756.66;;;1.55;100.00
39793;BME280;26080;42.264;24.536;2023-02-16T07:40:50;100725.66;;;1.52;100.00
39793;BME280;26080;42.264;24.536;2023-02-16T07:43:15;100751.78;;;1.79;100.00
39793;BME280;26080;42.264;24.536;2023-02-16T07:45:42;100733.78;;;1.85;100.00
39793;BME280;26080;42.264;24.536;2023-02-16T07:48:08;100752.03;;;2.03;100.00
39793;BME280;26080;42.264;24.536;2023-02-16T07:50:35;100753.88;;;2.14;100.00
39793;BME280;26080;42.264;24.536;2023-02-16T07:53:01;100761.72;;;2.23;100.00
39793;BME280;26080;42.264;24.536;2023-02-16T07:55:27;100757.56;;;2.37;100.00
39793;BME280;26080;42.264;24.536;2023-02-16T07:57:52;100772.22;;;2.41;100.00
39793;BME280;26080;42.264;24.536;2023-02-16T08:00:21;100768.00;;;2.48;100.00
39793;BME280;26080;42.264;24.536;2023-02-16T08:02:46;100768.03;;;2.52;100.00
39793;BME280;26080;42.264;24.536;2023-02-16T08:05:12;100749.03;;;2.47;100.00
39793;BME280;26080;42.264;24.536;2023-02-16T08:07:37;100770.75;;;2.69;100.00
39793;BME280;26080;42.264;24.536;2023-02-16T08:10:04;100767.41;;;2.82;100.00
39793;BME280;26080;42.264;24.536;2023-02-16T08:12:31;100771.81;;;2.97;100.00
39793;BME280;26080;42.264;24.536;2023-02-16T08:14:56;100769.25;;;3.00;100.00
39793;BME280;26080;42.264;24.536;2023-02-16T08:17:22;100774.47;;;3.02;100.00
39793;BME280;26080;42.264;24.536;2023-02-16T08:19:48;100737.28;;;2.89;100.00
39793;BME280;26080;42.264;24.536;2023-02-16T08:22:16;100765.06;;;3.20;100.00
39793;BME280;26080;42.264;24.536;2023-02-16T08:24:42;100770.34;;;3.39;100.00
39793;BME280;26080;42.264;24.536;2023-02-16T08:27:07;100766.94;;;3.44;100.00
39793;BME280;26080;42.264;24.536;2023-02-16T08:29:33;100765.16;;;3.39;100.00
39793;BME280;26080;42.264;24.536;2023-02-16T08:31:58;100758.31;;;3.50;100.00
39793;BME280;26080;42.264;24.536;2023-02-16T08:34:24;100765.28;;;3.60;100.00
39793;BME280;26080;42.264;24.536;2023-02-16T08:36:53;100753.19;;;3.68;100.00
39793;BME280;26080;42.264;24.536;2023-02-16T08:39:22;100742.88;;;3.71;100.00
39793;BME280;26080;42.264;24.536;2023-02-16T08:41:49;100753.25;;;3.80;100.00
39793;BME280;26080;42.264;24.536;2023-02-16T08:44:17;100751.56;;;3.95;100.00
39793;BME280;26080;42.264;24.536;2023-02-16T08:46:44;100715.28;;;3.95;100.00
39793;BME280;26080;42.264;24.536;2023-02-16T08:49:11;100745.56;;;4.14;100.00
39793;BME280;26080;42.264;24.536;2023-02-16T08:51:40;100745.56;;;4.15;100.00
39793;BME280;26080;42.264;24.536;2023-02-16T08:54:06;100741.28;;;4.27;100.00
39793;BME280;26080;42.264;24.536;2023-02-16T08:56:33;100703.22;;;4.15;100.00
39793;BME280;26080;42.264;24.536;2023-02-16T08:58:59;100743.88;;;4.42;100.00
39793;BME280;26080;42.264;24.536;2023-02-16T09:01:26;100741.28;;;4.45;100.00
39793;BME280;26080;42.264;24.536;2023-02-16T09:03:51;100725.72;;;4.43;100.00
39793;BME280;26080;42.264;24.536;2023-02-16T09:06:18;100749.06;;;4.56;100.00
39793;BME280;26080;42.264;24.536;2023-02-16T09:08:53;100730.91;;;4.45;100.00
39793;BME280;26080;42.264;24.536;2023-02-16T09:11:19;100747.31;;;4.76;100.00
39793;BME280;26080;42.264;24.536;2023-02-16T09:13:45;100742.13;;;4.90;100.00
39793;BME280;26080;42.264;24.536;2023-02-16T09:16:20;100740.38;;;5.02;100.00
39793;BME280;26080;42.264;24.536;2023-02-16T09:18:47;100741.25;;;5.08;100.00
39793;BME280;26080;42.264;24.536;2023-02-16T09:21:16;100741.22;;;5.17;100.00
39793;BME280;26080;42.264;24.536;2023-02-16T09:23:44;100723.03;;;5.12;100.00
39793;BME280;26080;42.264;24.536;2023-02-16T09:26:17;100737.75;;;5.24;100.00
39793;BME280;26080;42.264;24.536;2023-02-16T09:28:44;100734.28;;;5.22;100.00
39793;BME280;26080;42.264;24.536;2023-02-16T09:31:19;100722.19;;;5.04;100.00
39793;BME280;26080;42.264;24.536;2023-02-16T09:33:50;100742.06;;;5.20;100.00
39793;BME280;26080;42.264;24.536;2023-02-16T09:36:17;100735.09;;;5.38;100.00
39793;BME280;26080;42.264;24.536;2023-02-16T09:38:43;100696.16;;;5.27;100.00
39793;BME280;26080;42.264;24.536;2023-02-16T09:41:31;100726.38;;;5.52;100.00
39793;BME280;26080;42.264;24.536;2023-02-16T09:43:59;100721.16;;;5.58;100.00
39793;BME280;26080;42.264;24.536;2023-02-16T09:46:29;100715.94;;;5.64;100.00
39793;BME280;26080;42.264;24.536;2023-02-16T09:48:56;100713.28;;;5.72;99.84
39793;BME280;26080;42.264;24.536;2023-02-16T09:51:28;100686.41;;;5.79;99.04
39793;BME280;26080;42.264;24.536;2023-02-16T09:54:06;100708.84;;;5.99;99.72
39793;BME280;26080;42.264;24.536;2023-02-16T09:56:43;100707.94;;;6.06;99.90
39793;BME280;26080;42.264;24.536;2023-02-16T10:09:48;100690.22;;;6.52;96.93
39793;BME280;26080;42.264;24.536;2023-02-16T10:12:21;100689.31;;;6.59;96.69
39793;BME280;26080;42.264;24.536;2023-02-16T10:14:55;100678.78;;;6.73;96.41
39793;BME280;26080;42.264;24.536;2023-02-16T10:20:11;100675.88;;;6.99;91.08
39793;BME280;26080;42.264;24.536;2023-02-16T10:25:49;100665.47;;;7.00;89.85
39793;BME280;26080;42.264;24.536;2023-02-16T10:28:36;100662.69;;;7.14;87.72
39793;BME280;26080;42.264;24.536;2023-02-16T10:42:36;100663.00;;;7.59;85.76
39793;BME280;26080;42.264;24.536;2023-02-16T10:47:42;100648.84;;;7.77;85.45
39793;BME280;26080;42.264;24.536;2023-02-16T10:50:32;100641.69;;;7.89;85.21
39793;BME280;26080;42.264;24.536;2023-02-16T10:53:07;100632.00;;;7.97;83.42
39793;BME280;26080;42.264;24.536;2023-02-16T10:55:36;100633.88;;;7.89;84.06
39793;BME280;26080;42.264;24.536;2023-02-16T10:58:02;100633.09;;;7.84;82.73
39793;BME280;26080;42.264;24.536;2023-02-16T11:00:49;100630.25;;;7.98;81.15
39793;BME280;26080;42.264;24.536;2023-02-16T11:03:23;100622.31;;;8.06;81.98
39793;BME280;26080;42.264;24.536;2023-02-16T11:05:49;100624.88;;;8.07;83.03
39793;BME280;26080;42.264;24.536;2023-02-16T11:08:16;100624.91;;;8.06;82.67
39793;BME280;26080;42.264;24.536;2023-02-16T11:10:46;100621.34;;;8.11;81.40
39793;BME280;26080;42.264;24.536;2023-02-16T11:13:24;100613.25;;;8.28;80.20
39793;BME280;26080;42.264;24.536;2023-02-16T11:15:54;100603.69;;;8.27;79.15
39793;BME280;26080;42.264;24.536;2023-02-16T11:20:56;100564.97;;;8.02;79.21
39793;BME280;26080;42.264;24.536;2023-02-16T11:23:37;100596.59;;;8.35;78.30
39793;BME280;26080;42.264;24.536;2023-02-16T11:28:39;100590.34;;;8.45;78.48
39793;BME280;26080;42.264;24.536;2023-02-16T11:36:34;100582.88;;;8.72;75.78
39793;BME280;26080;42.264;24.536;2023-02-16T11:39:21;100571.56;;;8.71;74.81
39793;BME280;26080;42.264;24.536;2023-02-16T11:41:53;100568.97;;;8.71;75.07
39793;BME280;26080;42.264;24.536;2023-02-16T11:44:41;100564.84;;;8.59;74.44
39793;BME280;26080;42.264;24.536;2023-02-16T11:47:27;100559.56;;;8.61;75.46
39793;BME280;26080;42.264;24.536;2023-02-16T11:52:53;100551.72;;;8.63;75.60
39793;BME280;26080;42.264;24.536;2023-02-16T11:55:23;100552.59;;;8.61;76.04
39793;BME280;26080;42.264;24.536;2023-02-16T11:57:51;100543.78;;;8.69;75.93
39793;BME280;26080;42.264;24.536;2023-02-16T12:00:20;100546.09;;;8.82;75.49
39793;BME280;26080;42.264;24.536;2023-02-16T12:03:07;100550.25;;;8.93;75.28
39793;BME280;26080;42.264;24.536;2023-02-16T12:05:49;100541.41;;;8.98;75.52
39793;BME280;26080;42.264;24.536;2023-02-16T12:11:30;100529.03;;;9.08;73.42
39793;BME280;26080;42.264;24.536;2023-02-16T12:16:59;100514.84;;;9.18;72.36
39793;BME280;26080;42.264;24.536;2023-02-16T12:19:40;100512.84;;;9.29;72.28
39793;BME280;26080;42.264;24.536;2023-02-16T12:22:27;100513.59;;;9.36;71.15
39793;BME280;26080;42.264;24.536;2023-02-16T12:25:02;100509.13;;;9.39;71.12
39793;BME280;26080;42.264;24.536;2023-02-16T12:27:36;100502.88;;;9.45;71.85
39793;BME280;26080;42.264;24.536;2023-02-16T12:33:01;100496.75;;;9.47;70.47
39793;BME280;26080;42.264;24.536;2023-02-16T12:40:49;100487.94;;;9.52;69.60
39793;BME280;26080;42.264;24.536;2023-02-16T12:45:45;100469.16;;;9.70;67.29
39793;BME280;26080;42.264;24.536;2023-02-16T12:51:00;100457.50;;;9.49;68.02
39793;BME280;26080;42.264;24.536;2023-02-16T12:53:37;100462.56;;;9.55;69.47
39793;BME280;26080;42.264;24.536;2023-02-16T12:56:11;100465.25;;;9.52;69.70
39793;BME280;26080;42.264;24.536;2023-02-16T12:58:41;100458.81;;;9.65;69.81
39793;BME280;26080;42.264;24.536;2023-02-16T13:01:12;100451.09;;;9.61;70.35
39793;BME280;26080;42.264;24.536;2023-02-16T13:03:44;100448.13;;;9.74;68.71
39793;BME280;26080;42.264;24.536;2023-02-16T13:06:28;100448.28;;;9.68;70.73
39793;BME280;26080;42.264;24.536;2023-02-16T13:11:39;100430.19;;;9.59;69.47
39793;BME280;26080;42.264;24.536;2023-02-16T13:14:20;100442.69;;;9.82;67.92
39793;BME280;26080;42.264;24.536;2023-02-16T13:16:53;100439.94;;;9.87;67.12
39793;BME280;26080;42.264;24.536;2023-02-16T13:19:19;100427.94;;;9.79;69.12
39793;BME280;26080;42.264;24.536;2023-02-16T13:32:57;100419.81;;;9.90;68.86
39793;BME280;26080;42.264;24.536;2023-02-16T13:35:52;100416.19;;;9.94;67.74
39793;BME280;26080;42.264;24.536;2023-02-16T13:38:44;100407.72;;;9.85;69.45
39793;BME280;26080;42.264;24.536;2023-02-16T13:44:02;100411.09;;;9.90;68.20
39793;BME280;26080;42.264;24.536;2023-02-16T13:46:44;100401.31;;;9.96;66.87
39793;BME280;26080;42.264;24.536;2023-02-16T13:49:36;100404.16;;;9.89;66.40
39793;BME280;26080;42.264;24.536;2023-02-16T13:52:05;100408.34;;;9.94;67.08
39793;BME280;26080;42.264;24.536;2023-02-16T13:54:38;100406.78;;;9.89;68.92
39793;BME280;26080;42.264;24.536;2023-02-16T13:57:10;100393.16;;;9.76;67.98
39793;BME280;26080;42.264;24.536;2023-02-16T14:02:08;100403.25;;;9.90;67.51
39793;BME280;26080;42.264;24.536;2023-02-16T14:20:08;100359.16;;;9.76;66.17
39793;BME280;26080;42.264;24.536;2023-02-16T14:22:51;100384.84;;;9.93;65.65
39793;BME280;26080;42.264;24.536;2023-02-16T14:30:31;100378.31;;;9.76;65.66
39793;BME280;26080;42.264;24.536;2023-02-16T14:35:38;100385.59;;;9.65;67.10
39793;BME280;26080;42.264;24.536;2023-02-16T14:38:36;100379.25;;;9.74;66.56
39793;BME280;26080;42.264;24.536;2023-02-16T14:41:04;100367.00;;;9.76;67.11
39793;BME280;26080;42.264;24.536;2023-02-16T14:43:33;100367.75;;;9.79;65.55
39793;BME280;26080;42.264;24.536;2023-02-16T14:46:28;100369.47;;;9.80;66.39
39793;BME280;26080;42.264;24.536;2023-02-16T14:51:53;100359.16;;;9.76;66.39
39793;BME280;26080;42.264;24.536;2023-02-16T14:57:21;100364.47;;;9.71;65.85
39793;BME280;26080;42.264;24.536;2023-02-16T14:59:55;100340.34;;;9.62;66.24
39793;BME280;26080;42.264;24.536;2023-02-16T15:02:39;100357.72;;;9.64;65.49
39793;BME280;26080;42.264;24.536;2023-02-16T15:07:51;100365.50;;;9.66;65.44
39793;BME280;26080;42.264;24.536;2023-02-16T15:10:24;100364.81;;;9.59;65.98
39793;BME280;26080;42.264;24.536;2023-02-16T15:12:52;100363.94;;;9.59;66.36
39793;BME280;26080;42.264;24.536;2023-02-16T15:15:23;100340.84;;;9.42;66.35
39793;BME280;26080;42.264;24.536;2023-02-16T15:17:52;100365.88;;;9.52;66.07
39793;BME280;26080;42.264;24.536;2023-02-16T15:20:30;100368.66;;;9.46;66.69
39793;BME280;26080;42.264;24.536;2023-02-16T15:23:05;100378.28;;;9.44;66.54
39793;BME280;26080;42.264;24.536;2023-02-16T15:25:39;100328.50;;;9.14;66.38
39793;BME280;26080;42.264;24.536;2023-02-16T15:30:38;100370.88;;;9.27;66.90
39793;BME280;26080;42.264;24.536;2023-02-16T15:33:11;100369.28;;;9.22;66.53
39793;BME280;26080;42.264;24.536;2023-02-16T15:35:40;100379.00;;;9.15;67.54